createdAt,value
2017-11-22T00:01:26.142Z,25.87
2017-11-22T00:03:55.124Z,25.70
2017-11-22T00:06:24.108Z,26.47
2017-11-22T00:08:53.123Z,26.00
2017-11-22T00:11:22.120Z,26.20
2017-11-22T00:13:51.118Z,25.00
2017-11-22T00:16:20.077Z,24.13
2017-11-22T00:18:49.041Z,25.43
2017-11-22T00:21:20.053Z,26.67
2017-11-22T00:23:49.453Z,23.83
2017-11-22T00:26:18.881Z,26.60
2017-11-22T00:28:47.839Z,26.30
2017-11-22T00:31:17.575Z,22.83
2017-11-22T00:33:47.314Z,24.90
2017-11-22T00:36:16.297Z,25.40
2017-11-22T00:38:45.275Z,25.83
2017-11-22T00:41:15.153Z,25.87
2017-11-22T00:43:45.122Z,25.43
2017-11-22T00:46:15.079Z,26.20
2017-11-22T00:48:44.087Z,25.53
2017-11-22T00:51:13.074Z,23.67
2017-11-22T00:53:42.043Z,24.90
2017-11-22T00:56:11.012Z,24.40
2017-11-22T00:58:39.999Z,22.80
2017-11-22T01:01:08.998Z,20.90
2017-11-22T01:03:37.960Z,23.47
2017-11-22T01:06:06.964Z,23.47
2017-11-22T01:08:35.910Z,22.00
2017-11-22T01:11:04.853Z,21.43
2017-11-22T01:13:34.656Z,20.27
2017-11-22T01:16:03.692Z,20.90
2017-11-22T01:18:32.847Z,21.00
2017-11-22T01:21:01.893Z,18.50
2017-11-22T01:23:30.837Z,20.40
2017-11-22T01:26:00.583Z,21.27
2017-11-22T01:28:29.707Z,21.40
2017-11-22T01:30:59.443Z,21.37
2017-11-22T01:33:29.156Z,19.47
2017-11-22T01:35:58.886Z,22.20
2017-11-22T01:38:27.859Z,22.70
2017-11-22T01:40:57.562Z,23.87
2017-11-22T01:43:26.948Z,22.87
2017-11-22T01:45:55.912Z,25.10
2017-11-22T01:48:24.884Z,24.80
2017-11-22T01:50:54.663Z,24.83
2017-11-22T01:53:23.770Z,27.23
2017-11-22T01:55:53.478Z,26.83
2017-11-22T01:58:22.485Z,26.60
2017-11-22T02:00:54.115Z,26.20
2017-11-22T02:03:23.102Z,25.97
2017-11-22T02:05:52.847Z,26.20
2017-11-22T02:08:21.834Z,26.60
2017-11-22T02:10:51.591Z,26.30
2017-11-22T02:13:20.570Z,26.63
2017-11-22T02:15:49.530Z,27.40
2017-11-22T02:18:18.533Z,26.67
2017-11-22T02:20:47.509Z,25.80
2017-11-22T02:23:16.595Z,25.03
2017-11-22T02:25:45.643Z,25.57
2017-11-22T02:28:14.588Z,25.60
2017-11-22T02:30:43.536Z,25.67
2017-11-22T02:33:12.531Z,23.03
2017-11-22T02:35:41.479Z,25.03
2017-11-22T02:38:11.408Z,25.93
2017-11-22T02:40:40.401Z,23.70
2017-11-22T02:43:11.282Z,23.37
2017-11-22T02:45:41.027Z,24.63
2017-11-22T02:48:12.038Z,23.87
2017-11-22T02:50:42.842Z,21.90
2017-11-22T02:53:11.970Z,22.50
2017-11-22T02:55:41.882Z,21.73
2017-11-22T02:58:18.595Z,21.70
2017-11-22T03:00:47.674Z,20.47
2017-11-22T03:03:17.055Z,20.20
2017-11-22T03:05:46.023Z,21.83
2017-11-22T03:08:15.077Z,19.67
2017-11-22T03:10:44.145Z,20.50
2017-11-22T03:13:13.135Z,20.57
2017-11-22T03:15:44.850Z,19.47
2017-11-22T03:18:13.847Z,20.00
2017-11-22T03:20:42.873Z,20.70
2017-11-22T03:23:12.574Z,20.57
2017-11-22T03:25:41.951Z,19.67
2017-11-22T03:28:10.906Z,19.67
2017-11-22T03:30:39.872Z,19.73
2017-11-22T03:33:08.867Z,20.43
2017-11-22T03:35:37.854Z,19.23
2017-11-22T03:38:07.554Z,19.60
2017-11-22T03:40:37.292Z,19.20
2017-11-22T03:43:06.242Z,18.83
2017-11-22T03:45:35.989Z,18.77
2017-11-22T03:48:11.889Z,18.47
2017-11-22T03:50:46.838Z,20.10
2017-11-22T03:53:21.499Z,19.80
2017-11-22T03:55:50.421Z,20.63
2017-11-22T03:58:28.964Z,19.90
2017-11-22T04:00:57.998Z,19.53
2017-11-22T04:03:27.001Z,18.13
2017-11-22T04:05:55.959Z,19.63
2017-11-22T04:08:27.427Z,19.30
2017-11-22T04:10:56.816Z,19.00
2017-11-22T04:13:31.156Z,18.93
2017-11-22T04:16:00.098Z,17.10
2017-11-22T04:18:29.066Z,19.00
2017-11-22T04:20:58.120Z,18.50
2017-11-22T04:23:27.832Z,17.80
2017-11-22T04:25:56.803Z,16.87
2017-11-22T04:28:26.517Z,18.33
2017-11-22T04:30:57.868Z,17.63
2017-11-22T04:33:26.938Z,17.37
2017-11-22T04:35:56.772Z,15.37
2017-11-22T04:38:32.378Z,15.43
2017-11-22T04:41:01.416Z,17.17
2017-11-22T04:43:31.147Z,15.87
2017-11-22T04:46:00.518Z,16.10
2017-11-22T04:48:29.525Z,15.57
2017-11-22T04:50:59.246Z,14.30
2017-11-22T04:53:28.287Z,15.17
2017-11-22T04:55:57.326Z,16.80
2017-11-22T04:58:26.269Z,14.90
2017-11-22T05:00:55.646Z,15.30
2017-11-22T05:03:25.357Z,14.57
2017-11-22T05:05:54.472Z,15.83
2017-11-22T05:08:23.497Z,15.97
2017-11-22T05:10:52.493Z,15.23
2017-11-22T05:13:22.250Z,15.37
2017-11-22T05:15:51.244Z,15.13
2017-11-22T05:18:31.451Z,15.40
2017-11-22T05:21:00.438Z,15.50
2017-11-22T05:23:30.251Z,15.77
2017-11-22T05:25:59.356Z,15.37
2017-11-22T05:28:28.346Z,12.60
2017-11-22T05:30:58.113Z,14.67
2017-11-22T05:33:27.123Z,14.63
2017-11-22T05:35:56.082Z,14.60
2017-11-22T05:38:25.084Z,14.67
2017-11-22T05:41:07.634Z,16.50
2017-11-22T05:43:36.611Z,15.47
2017-11-22T05:46:05.607Z,16.07
2017-11-22T05:48:34.575Z,16.13
2017-11-22T05:51:03.617Z,16.63
2017-11-22T05:53:33.330Z,16.40
2017-11-22T05:56:03.070Z,17.53
2017-11-22T05:58:32.070Z,16.70
2017-11-22T06:01:06.773Z,17.83
2017-11-22T06:03:36.201Z,18.10
2017-11-22T06:06:05.204Z,17.87
2017-11-22T06:08:34.174Z,18.73
2017-11-22T06:11:03.548Z,17.67
2017-11-22T06:13:33.322Z,18.10
2017-11-22T06:16:02.345Z,19.20
2017-11-22T06:18:31.264Z,19.17
2017-11-22T06:21:00.326Z,19.00
2017-11-22T06:23:29.731Z,19.67
2017-11-22T06:25:58.701Z,20.03
2017-11-22T06:28:27.718Z,18.20
2017-11-22T06:30:58.191Z,18.03
2017-11-22T06:33:27.319Z,19.60
2017-11-22T06:35:56.436Z,19.53
2017-11-22T06:38:25.381Z,19.13
2017-11-22T06:40:54.384Z,19.60
2017-11-22T06:43:23.381Z,19.93
2017-11-22T06:45:52.414Z,21.03
2017-11-22T06:48:22.144Z,20.00
2017-11-22T06:50:52.273Z,18.77
2017-11-22T06:53:22.014Z,18.07
2017-11-22T06:55:51.759Z,20.40
2017-11-22T06:58:21.584Z,20.70
2017-11-22T07:00:51.419Z,20.83
2017-11-22T07:03:26.061Z,20.43
2017-11-22T07:05:55.419Z,20.67
2017-11-22T07:08:25.134Z,19.87
2017-11-22T07:10:54.557Z,18.60
2017-11-22T07:13:23.503Z,20.20
2017-11-22T07:15:55.104Z,20.47
2017-11-22T07:18:24.190Z,21.87
2017-11-22T07:20:54.312Z,19.67
2017-11-22T07:23:24.217Z,19.03
2017-11-22T07:25:53.604Z,18.63
2017-11-22T07:28:23.325Z,18.73
2017-11-22T07:30:52.823Z,19.00
2017-11-22T07:33:21.773Z,16.67
2017-11-22T07:35:56.321Z,17.47
2017-11-22T07:38:26.035Z,15.13
2017-11-22T07:40:55.414Z,15.13
2017-11-22T07:43:24.407Z,17.20
2017-11-22T07:45:53.457Z,15.40
2017-11-22T07:48:28.546Z,15.60
2017-11-22T07:51:04.024Z,16.10
2017-11-22T07:53:32.982Z,15.63
2017-11-22T07:56:05.449Z,15.17
2017-11-22T07:58:35.956Z,14.77
2017-11-22T08:01:04.909Z,15.87
2017-11-22T08:03:35.365Z,14.23
2017-11-22T08:06:04.395Z,14.60
2017-11-22T08:08:34.297Z,16.20
2017-11-22T08:11:03.309Z,13.90
2017-11-22T08:13:33.052Z,13.43
2017-11-22T08:16:02.021Z,14.87
2017-11-22T08:18:31.779Z,15.20
2017-11-22T08:21:00.778Z,13.50
2017-11-22T08:23:30.634Z,15.13
2017-11-22T08:25:59.618Z,17.30
2017-11-22T08:28:29.021Z,15.77
2017-11-22T08:30:57.959Z,15.40
2017-11-22T08:33:27.335Z,14.83
2017-11-22T08:35:56.309Z,15.00
2017-11-22T08:38:25.678Z,15.07
2017-11-22T08:40:54.626Z,16.90
2017-11-22T08:43:29.151Z,19.77
2017-11-22T08:45:58.902Z,16.83
2017-11-22T08:48:27.881Z,16.20
2017-11-22T08:50:57.642Z,17.83
2017-11-22T08:53:29.058Z,17.77
2017-11-22T08:56:06.696Z,19.70
2017-11-22T08:58:36.591Z,18.43
2017-11-22T09:01:05.573Z,18.97
2017-11-22T09:03:40.206Z,20.77
2017-11-22T09:06:15.498Z,22.87
2017-11-22T09:08:44.456Z,21.40
2017-11-22T09:11:13.416Z,20.80
2017-11-22T09:14:09.943Z,20.13
2017-11-22T09:16:38.898Z,21.60
2017-11-22T09:19:12.048Z,22.67
2017-11-22T09:21:41.849Z,21.20
2017-11-22T09:24:13.572Z,23.50
2017-11-22T09:26:43.339Z,23.47
2017-11-22T09:29:12.382Z,23.60
2017-11-22T09:31:46.920Z,24.17
2017-11-22T09:34:21.602Z,26.10
2017-11-22T09:36:50.588Z,22.23
2017-11-22T09:39:20.338Z,22.73
2017-11-22T09:41:49.468Z,25.77
2017-11-22T09:44:18.824Z,23.43
2017-11-22T09:46:47.798Z,23.37
2017-11-22T09:49:16.868Z,24.70
2017-11-22T09:51:46.169Z,24.60
2017-11-22T09:54:15.137Z,24.70
2017-11-22T09:56:44.120Z,24.57
2017-11-22T09:59:13.863Z,23.20
2017-11-22T10:01:42.818Z,23.33
2017-11-22T10:04:11.803Z,20.80
2017-11-22T10:06:40.812Z,22.77
2017-11-22T10:09:09.848Z,21.80
2017-11-22T10:11:40.093Z,22.17
2017-11-22T10:14:09.114Z,21.17
2017-11-22T10:16:38.109Z,21.80
2017-11-22T10:19:07.527Z,20.93
2017-11-22T10:21:42.293Z,19.90
2017-11-22T10:24:16.912Z,21.40
2017-11-22T10:26:51.975Z,20.17
2017-11-22T10:29:24.237Z,18.77
2017-11-22T10:31:58.739Z,19.37
2017-11-22T10:34:27.745Z,17.70
2017-11-22T10:36:57.209Z,21.80
2017-11-22T10:39:26.614Z,20.47
2017-11-22T10:41:55.750Z,18.03
2017-11-22T10:44:25.247Z,17.33
2017-11-22T10:46:54.512Z,18.87
2017-11-22T10:49:24.119Z,18.90
2017-11-22T10:51:54.187Z,19.13
2017-11-22T10:54:23.936Z,17.80
2017-11-22T10:56:53.756Z,18.60
2017-11-22T10:59:25.204Z,18.07
2017-11-22T11:01:54.991Z,16.60
2017-11-22T11:04:24.880Z,14.73
2017-11-22T11:06:55.452Z,17.67
2017-11-22T11:09:25.215Z,16.70
2017-11-22T11:11:54.247Z,14.40
2017-11-22T11:14:24.097Z,15.80
2017-11-22T11:16:53.487Z,16.33
2017-11-22T11:19:22.506Z,16.60
2017-11-22T11:24:27.296Z,16.63
2017-11-22T11:26:58.161Z,15.80
2017-11-22T11:29:28.520Z,14.73
2017-11-22T11:31:57.659Z,15.90
2017-11-22T11:34:27.555Z,14.17
2017-11-22T11:36:56.525Z,15.50
2017-11-22T11:39:27.012Z,16.03
2017-11-22T11:41:55.975Z,15.93
2017-11-22T11:44:26.131Z,14.40
2017-11-22T11:46:56.907Z,15.43
2017-11-22T11:49:26.775Z,13.97
2017-11-22T11:51:57.191Z,16.80
2017-11-22T11:54:27.544Z,17.07
2017-11-22T11:56:58.128Z,15.33
2017-11-22T11:59:27.757Z,14.90
2017-11-22T12:01:56.882Z,15.87
2017-11-22T12:04:27.622Z,16.13
2017-11-22T12:06:57.578Z,16.30
2017-11-22T12:09:27.565Z,14.70
2017-11-22T12:11:57.515Z,14.50
2017-11-22T12:14:27.396Z,14.83
2017-11-22T12:16:57.706Z,13.80
2017-11-22T12:19:27.970Z,14.87
2017-11-22T12:22:02.484Z,14.77
2017-11-22T12:24:32.181Z,16.43
2017-11-22T12:27:01.321Z,14.67
2017-11-22T12:29:33.505Z,15.20
2017-11-22T12:32:02.704Z,14.30
2017-11-22T12:34:34.072Z,16.03
2017-11-22T12:37:04.222Z,13.53
2017-11-22T12:39:34.147Z,14.30
2017-11-22T12:42:04.047Z,14.27
2017-11-22T12:44:33.877Z,13.83
2017-11-22T12:47:05.342Z,13.97
2017-11-22T12:49:35.132Z,15.87
2017-11-22T12:52:04.955Z,13.80
2017-11-22T12:54:34.163Z,14.33
2017-11-22T12:57:03.238Z,15.20
2017-11-22T12:59:32.646Z,15.10
2017-11-22T13:02:02.479Z,14.87
2017-11-22T13:04:31.491Z,14.57
2017-11-22T13:07:00.531Z,14.63
2017-11-22T13:09:29.924Z,12.77
2017-11-22T13:11:59.691Z,13.90
2017-11-22T13:14:29.467Z,14.00
2017-11-22T13:16:58.459Z,14.60
2017-11-22T13:19:27.484Z,14.20
2017-11-22T13:21:56.482Z,14.43
2017-11-22T13:24:26.240Z,14.83
2017-11-22T13:26:56.021Z,13.93
2017-11-22T13:29:25.765Z,14.33
2017-11-22T13:31:58.062Z,15.07
2017-11-22T13:34:27.042Z,14.17
2017-11-22T13:36:56.041Z,14.20
2017-11-22T13:39:25.582Z,15.60
2017-11-22T13:41:54.612Z,13.17
2017-11-22T13:44:24.519Z,14.67
2017-11-22T13:46:54.295Z,14.80
2017-11-22T13:49:24.050Z,14.47
2017-11-22T13:51:54.844Z,13.80
2017-11-22T13:54:23.831Z,15.60
2017-11-22T13:56:52.872Z,15.37
2017-11-22T13:59:21.869Z,16.53
2017-11-22T14:01:51.721Z,14.93
2017-11-22T14:04:20.752Z,14.40
2017-11-22T14:06:50.490Z,12.10
2017-11-22T14:09:19.514Z,15.50
2017-11-22T14:11:48.490Z,14.33
2017-11-22T14:14:18.381Z,14.13
2017-11-22T14:16:48.130Z,14.90
2017-11-22T14:19:17.151Z,14.60
2017-11-22T14:21:46.145Z,15.83
2017-11-22T14:24:15.922Z,16.27
2017-11-22T14:26:44.950Z,13.73
2017-11-22T14:29:14.433Z,15.13
2017-11-22T14:31:43.451Z,14.27
2017-11-22T14:34:12.446Z,13.67
2017-11-22T14:36:41.434Z,15.83
2017-11-22T14:39:10.440Z,15.67
2017-11-22T14:41:39.428Z,16.27
2017-11-22T14:44:08.446Z,18.10
2017-11-22T14:46:37.429Z,16.97
2017-11-22T14:49:07.168Z,17.17
2017-11-22T14:51:36.338Z,16.97
2017-11-22T14:54:06.083Z,16.90
2017-11-22T14:56:35.088Z,16.97
2017-11-22T14:59:04.139Z,17.10
2017-11-22T15:01:33.902Z,16.30
2017-11-22T15:04:03.648Z,16.47
2017-11-22T15:06:33.454Z,18.63
2017-11-22T15:09:03.408Z,16.87
2017-11-22T15:11:33.316Z,15.80
2017-11-22T15:14:02.299Z,17.60
2017-11-22T15:16:31.380Z,16.27
2017-11-22T15:19:01.117Z,16.83
2017-11-22T15:21:30.343Z,17.93
2017-11-22T15:23:59.537Z,18.40
2017-11-22T15:26:28.572Z,16.97
2017-11-22T15:28:58.537Z,17.87
2017-11-22T15:31:28.312Z,17.40
2017-11-22T15:34:00.056Z,18.53
2017-11-22T15:36:29.181Z,16.87
2017-11-22T15:38:58.265Z,16.73
2017-11-22T15:41:30.230Z,17.97
2017-11-22T15:43:59.355Z,18.53
2017-11-22T15:46:29.437Z,18.10
2017-11-22T15:48:59.573Z,18.27
2017-11-22T15:51:28.675Z,18.50
2017-11-22T15:53:59.175Z,17.90
2017-11-22T15:56:28.485Z,18.27
2017-11-22T15:58:58.276Z,18.83
2017-11-22T16:01:28.526Z,18.50
2017-11-22T16:03:57.678Z,19.20
2017-11-22T16:06:27.344Z,17.90
2017-11-22T16:08:56.412Z,17.60
2017-11-22T16:11:26.289Z,18.20
2017-11-22T16:13:55.518Z,18.23
2017-11-22T16:16:24.973Z,17.60
2017-11-22T16:18:54.010Z,17.80
2017-11-22T16:21:24.945Z,18.27
2017-11-22T16:23:54.689Z,18.33
2017-11-22T16:26:24.443Z,17.93
2017-11-22T16:28:53.415Z,18.40
2017-11-22T16:31:22.764Z,18.10
2017-11-22T16:33:52.490Z,17.47
2017-11-22T16:36:21.498Z,17.40
2017-11-22T16:38:50.856Z,17.07
2017-11-22T16:41:20.632Z,18.60
2017-11-22T16:43:49.680Z,19.20
2017-11-22T16:46:19.068Z,21.00
2017-11-22T16:48:48.871Z,28.40
2017-11-22T16:51:18.618Z,25.10
2017-11-22T16:53:48.355Z,17.90
2017-11-22T16:56:17.384Z,16.80
2017-11-22T16:58:46.357Z,17.50
2017-11-22T17:01:15.405Z,17.20
2017-11-22T17:03:44.377Z,18.37
2017-11-22T17:06:13.398Z,17.60
2017-11-22T17:08:42.403Z,14.50
2017-11-22T17:11:12.196Z,17.93
2017-11-22T17:13:41.214Z,15.93
2017-11-22T17:16:10.245Z,16.87
2017-11-22T17:18:39.366Z,14.93
2017-11-22T17:21:08.357Z,15.70
2017-11-22T17:23:37.374Z,15.97
2017-11-22T17:26:06.782Z,16.20
2017-11-22T17:28:36.355Z,16.17
2017-11-22T17:31:05.352Z,16.97
2017-11-22T17:33:34.743Z,14.93
2017-11-22T17:36:03.719Z,16.10
2017-11-22T17:38:32.751Z,14.63
2017-11-22T17:41:01.976Z,14.70
2017-11-22T17:43:31.958Z,14.47
2017-11-22T17:46:03.433Z,13.77
2017-11-22T17:48:33.045Z,14.57
2017-11-22T17:51:02.147Z,14.00
2017-11-22T17:53:31.302Z,14.50
2017-11-22T17:56:01.166Z,13.73
2017-11-22T17:58:32.661Z,14.40
2017-11-22T18:01:02.953Z,14.03
2017-11-22T18:03:32.917Z,12.90
2017-11-22T18:06:01.912Z,11.90
2017-11-22T18:08:30.959Z,11.83
2017-11-22T18:11:00.717Z,11.70
2017-11-22T18:13:31.301Z,12.80
2017-11-22T18:16:03.153Z,13.57
2017-11-22T18:18:33.388Z,12.40
2017-11-22T18:21:03.672Z,11.90
2017-11-22T18:23:32.897Z,11.03
2017-11-22T18:26:03.465Z,11.83
2017-11-22T18:28:33.389Z,11.17
2017-11-22T18:31:02.456Z,11.47
2017-11-22T18:33:32.322Z,13.60
2017-11-22T18:36:02.294Z,11.77
2017-11-22T18:38:31.603Z,11.43
2017-11-22T18:41:02.142Z,12.10
2017-11-22T18:43:31.181Z,11.80
2017-11-22T18:46:00.749Z,13.10
2017-11-22T18:48:29.868Z,11.57
2017-11-22T18:50:59.639Z,10.33
2017-11-22T18:53:30.328Z,11.80
2017-11-22T18:55:59.443Z,11.50
2017-11-22T18:58:29.642Z,10.93
2017-11-22T19:00:59.926Z,10.33
2017-11-22T19:03:29.744Z,10.60
2017-11-22T19:05:58.749Z,11.50
2017-11-22T19:08:28.112Z,11.30
2017-11-22T19:10:58.058Z,10.67
2017-11-22T19:13:28.101Z,11.30
2017-11-22T19:15:57.944Z,11.50
2017-11-22T19:18:27.042Z,11.30
2017-11-22T19:20:56.574Z,11.63
2017-11-22T19:23:25.789Z,10.77
2017-11-22T19:25:57.405Z,11.30
2017-11-22T19:28:27.147Z,10.30
2017-11-22T19:30:57.733Z,11.00
2017-11-22T19:33:26.783Z,9.70
2017-11-22T19:35:56.266Z,9.20
2017-11-22T19:38:25.293Z,9.10
2017-11-22T19:40:56.571Z,9.63
2017-11-22T19:43:25.915Z,8.87
2017-11-22T19:45:55.802Z,9.00
2017-11-22T19:48:24.887Z,9.00
2017-11-22T19:50:54.819Z,8.50
2017-11-22T19:53:26.198Z,8.73
2017-11-22T19:55:55.669Z,9.07
2017-11-22T19:58:26.364Z,8.30
2017-11-22T20:00:55.945Z,7.20
2017-11-22T20:03:25.764Z,8.00
2017-11-22T20:05:55.687Z,7.80
2017-11-22T20:08:36.682Z,8.57
2017-11-22T20:11:05.848Z,7.43
2017-11-22T20:13:34.918Z,7.20
2017-11-22T20:16:06.602Z,7.97
2017-11-22T20:18:35.904Z,7.40
2017-11-22T20:21:05.971Z,6.40
2017-11-22T20:23:36.566Z,6.50
2017-11-22T20:26:06.325Z,6.73
2017-11-22T20:28:35.609Z,7.03
2017-11-22T20:31:04.766Z,6.00
2017-11-22T20:33:34.591Z,6.20
2017-11-22T20:36:03.759Z,6.43
2017-11-22T20:38:34.032Z,6.07
2017-11-22T20:41:04.308Z,6.40
2017-11-22T20:43:34.365Z,7.10
2017-11-22T20:46:03.550Z,5.73
2017-11-22T20:48:32.841Z,6.20
2017-11-22T20:51:03.601Z,6.03
2017-11-22T20:53:32.952Z,7.30
2017-11-22T20:56:02.885Z,6.33
2017-11-22T20:58:33.790Z,6.23
2017-11-22T21:01:03.265Z,6.13
2017-11-22T21:03:33.195Z,5.30
2017-11-22T21:06:07.022Z,5.97
2017-11-22T21:08:37.019Z,5.70
2017-11-22T21:11:06.258Z,5.67
2017-11-22T21:13:35.831Z,5.70
2017-11-22T21:16:06.228Z,5.77
2017-11-22T21:18:35.295Z,5.30
2017-11-22T21:21:04.383Z,5.63
2017-11-22T21:23:36.608Z,5.43
2017-11-22T21:26:06.054Z,6.30
2017-11-22T21:28:35.228Z,5.60
2017-11-22T21:31:05.132Z,5.50
2017-11-22T21:33:34.717Z,6.03
2017-11-22T21:36:03.839Z,5.83
2017-11-22T21:38:34.463Z,5.93
2017-11-22T21:41:03.602Z,5.40
2017-11-22T21:43:32.780Z,5.20
2017-11-22T21:46:02.658Z,5.27
2017-11-22T21:48:31.727Z,5.73
2017-11-22T21:51:00.767Z,5.60
2017-11-22T21:53:31.015Z,5.90
2017-11-22T21:56:00.456Z,4.77
2017-11-22T21:58:29.598Z,5.43
2017-11-22T22:00:59.043Z,5.60
2017-11-22T22:03:29.716Z,5.33
2017-11-22T22:06:00.640Z,5.03
2017-11-22T22:08:30.533Z,5.40
2017-11-22T22:10:59.647Z,4.77
2017-11-22T22:13:29.064Z,4.47
2017-11-22T22:15:58.850Z,5.03
2017-11-22T22:18:30.315Z,5.27
2017-11-22T22:21:00.257Z,4.70
2017-11-22T22:23:30.306Z,5.43
2017-11-22T22:25:59.329Z,4.93
2017-11-22T22:28:29.242Z,5.20
2017-11-22T22:30:58.322Z,5.20
2017-11-22T22:33:27.503Z,5.30
2017-11-22T22:39:03.832Z,5.70
2017-11-22T22:41:33.724Z,5.00
2017-11-22T22:44:05.664Z,5.03
2017-11-22T22:46:36.149Z,4.77
2017-11-22T22:49:06.163Z,4.67
2017-11-22T22:51:35.230Z,4.40
2017-11-22T22:54:04.225Z,4.10
2017-11-22T22:56:34.014Z,4.60
2017-11-22T22:59:03.038Z,4.87
2017-11-22T23:01:32.146Z,3.77
2017-11-22T23:04:01.187Z,4.30
2017-11-22T23:06:31.887Z,4.07
2017-11-22T23:09:01.675Z,4.40
2017-11-22T23:11:31.516Z,4.53
2017-11-22T23:14:00.541Z,4.77
2017-11-22T23:16:29.797Z,4.17
2017-11-22T23:18:59.647Z,4.23
2017-11-22T23:21:28.663Z,3.90
2017-11-22T23:23:58.100Z,3.40
2017-11-22T23:26:27.885Z,3.73
2017-11-22T23:28:57.916Z,4.13
2017-11-22T23:31:26.996Z,4.07
2017-11-22T23:33:56.108Z,3.57
2017-11-22T23:36:25.186Z,3.40
2017-11-22T23:38:54.249Z,3.40
2017-11-22T23:41:24.224Z,3.80
2017-11-22T23:43:53.355Z,3.97
2017-11-22T23:46:22.330Z,3.97
2017-11-22T23:48:51.784Z,3.53
2017-11-22T23:51:20.801Z,3.80
2017-11-22T23:53:49.793Z,3.70
2017-11-22T23:56:19.550Z,3.70
2017-11-22T23:58:48.539Z,3.67
